sensor_id;sensor_type;location;lat;lon;timestamp;P1;durP1;ratioP1;P2;durP2;ratioP2
33987;SDS011;37428;53.580;-1.666;2022-10-17T00:00:07;10.48;;;6.55;;
33987;SDS011;37428;53.580;-1.666;2022-10-17T00:03:10;10.38;;;6.20;;
33987;SDS011;37428;53.580;-1.666;2022-10-17T00:06:15;8.88;;;5.80;;
33987;SDS011;37428;53.580;-1.666;2022-10-17T00:09:23;7.65;;;5.35;;
33987;SDS011;37428;53.580;-1.666;2022-10-17T00:12:26;5.55;;;4.53;;
33987;SDS011;37428;53.580;-1.666;2022-10-17T00:15:28;6.45;;;4.35;;
33987;SDS011;37428;53.580;-1.666;2022-10-17T00:18:31;8.13;;;3.60;;
33987;SDS011;37428;53.580;-1.666;2022-10-17T00:21:35;3.78;;;3.05;;
33987;SDS011;37428;53.580;-1.666;2022-10-17T00:24:39;4.07;;;3.28;;
33987;SDS011;37428;53.580;-1.666;2022-10-17T00:27:42;4.30;;;3.80;;
33987;SDS011;37428;53.580;-1.666;2022-10-17T00:30:44;5.10;;;4.55;;
33987;SDS011;37428;53.580;-1.666;2022-10-17T00:33:48;5.00;;;4.60;;
33987;SDS011;37428;53.580;-1.666;2022-10-17T00:36:53;6.88;;;6.18;;
33987;SDS011;37428;53.580;-1.666;2022-10-17T00:39:55;7.45;;;6.85;;
33987;SDS011;37428;53.580;-1.666;2022-10-17T00:43:00;8.68;;;7.88;;
33987;SDS011;37428;53.580;-1.666;2022-10-17T00:46:14;9.13;;;7.13;;
33987;SDS011;37428;53.580;-1.666;2022-10-17T00:49:16;7.72;;;6.60;;
33987;SDS011;37428;53.580;-1.666;2022-10-17T00:52:23;7.40;;;6.68;;
33987;SDS011;37428;53.580;-1.666;2022-10-17T00:55:29;7.65;;;6.13;;
33987;SDS011;37428;53.580;-1.666;2022-10-17T00:58:35;6.30;;;5.68;;
33987;SDS011;37428;53.580;-1.666;2022-10-17T01:01:37;5.72;;;5.22;;
33987;SDS011;37428;53.580;-1.666;2022-10-17T01:05:02;9.63;;;7.82;;
33987;SDS011;37428;53.580;-1.666;2022-10-17T01:08:10;8.80;;;6.90;;
33987;SDS011;37428;53.580;-1.666;2022-10-17T01:11:20;9.20;;;6.47;;
33987;SDS011;37428;53.580;-1.666;2022-10-17T01:14:35;7.13;;;6.53;;
33987;SDS011;37428;53.580;-1.666;2022-10-17T01:28:15;12.15;;;8.48;;
33987;SDS011;37428;53.580;-1.666;2022-10-17T01:31:50;9.88;;;9.00;;
33987;SDS011;37428;53.580;-1.666;2022-10-17T01:34:56;10.95;;;9.75;;
33987;SDS011;37428;53.580;-1.666;2022-10-17T01:38:04;8.40;;;7.43;;
33987;SDS011;37428;53.580;-1.666;2022-10-17T01:41:13;9.68;;;6.05;;
33987;SDS011;37428;53.580;-1.666;2022-10-17T01:44:19;5.57;;;4.97;;
33987;SDS011;37428;53.580;-1.666;2022-10-17T01:47:30;6.15;;;4.68;;
33987;SDS011;37428;53.580;-1.666;2022-10-17T01:50:34;4.82;;;2.53;;
33987;SDS011;37428;53.580;-1.666;2022-10-17T01:53:41;4.88;;;1.90;;
33987;SDS011;37428;53.580;-1.666;2022-10-17T01:56:50;5.30;;;1.67;;
33987;SDS011;37428;53.580;-1.666;2022-10-17T01:59:55;4.32;;;1.10;;
33987;SDS011;37428;53.580;-1.666;2022-10-17T02:03:02;5.45;;;1.42;;
33987;SDS011;37428;53.580;-1.666;2022-10-17T02:06:07;5.95;;;1.25;;
33987;SDS011;37428;53.580;-1.666;2022-10-17T02:09:16;5.47;;;1.20;;
33987;SDS011;37428;53.580;-1.666;2022-10-17T02:12:25;1.95;;;1.20;;
33987;SDS011;37428;53.580;-1.666;2022-10-17T02:15:43;2.53;;;0.70;;
33987;SDS011;37428;53.580;-1.666;2022-10-17T02:19:00;4.85;;;0.68;;
33987;SDS011;37428;53.580;-1.666;2022-10-17T02:22:15;2.50;;;0.50;;
33987;SDS011;37428;53.580;-1.666;2022-10-17T02:25:24;4.05;;;0.90;;
33987;SDS011;37428;53.580;-1.666;2022-10-17T02:31:40;1.92;;;0.70;;
33987;SDS011;37428;53.580;-1.666;2022-10-17T02:34:49;2.30;;;0.63;;
33987;SDS011;37428;53.580;-1.666;2022-10-17T02:37:54;3.17;;;0.65;;
33987;SDS011;37428;53.580;-1.666;2022-10-17T02:40:56;2.80;;;0.47;;
33987;SDS011;37428;53.580;-1.666;2022-10-17T02:44:01;3.80;;;0.40;;
33987;SDS011;37428;53.580;-1.666;2022-10-17T02:47:08;2.78;;;0.75;;
33987;SDS011;37428;53.580;-1.666;2022-10-17T02:50:21;3.85;;;0.50;;
33987;SDS011;37428;53.580;-1.666;2022-10-17T02:53:29;6.38;;;0.52;;
33987;SDS011;37428;53.580;-1.666;2022-10-17T02:56:35;4.03;;;0.60;;
33987;SDS011;37428;53.580;-1.666;2022-10-17T02:59:41;4.50;;;1.17;;
33987;SDS011;37428;53.580;-1.666;2022-10-17T03:02:47;3.53;;;0.60;;
33987;SDS011;37428;53.580;-1.666;2022-10-17T03:05:52;4.68;;;0.90;;
33987;SDS011;37428;53.580;-1.666;2022-10-17T03:08:54;2.95;;;0.90;;
33987;SDS011;37428;53.580;-1.666;2022-10-17T03:11:56;6.75;;;0.80;;
33987;SDS011;37428;53.580;-1.666;2022-10-17T03:14:58;2.85;;;0.68;;
33987;SDS011;37428;53.580;-1.666;2022-10-17T03:18:01;3.72;;;0.80;;
33987;SDS011;37428;53.580;-1.666;2022-10-17T03:21:04;7.53;;;1.48;;
33987;SDS011;37428;53.580;-1.666;2022-10-17T03:24:06;6.82;;;0.95;;
33987;SDS011;37428;53.580;-1.666;2022-10-17T03:27:09;2.58;;;0.60;;
33987;SDS011;37428;53.580;-1.666;2022-10-17T03:30:13;4.70;;;1.50;;
33987;SDS011;37428;53.580;-1.666;2022-10-17T03:33:16;3.63;;;1.08;;
33987;SDS011;37428;53.580;-1.666;2022-10-17T03:36:20;2.75;;;0.50;;
33987;SDS011;37428;53.580;-1.666;2022-10-17T03:39:22;3.83;;;0.70;;
33987;SDS011;37428;53.580;-1.666;2022-10-17T03:42:24;5.82;;;0.80;;
33987;SDS011;37428;53.580;-1.666;2022-10-17T03:45:26;3.35;;;1.02;;
33987;SDS011;37428;53.580;-1.666;2022-10-17T03:48:29;2.03;;;0.93;;
33987;SDS011;37428;53.580;-1.666;2022-10-17T03:51:35;3.53;;;0.82;;
33987;SDS011;37428;53.580;-1.666;2022-10-17T03:54:39;6.40;;;1.17;;
33987;SDS011;37428;53.580;-1.666;2022-10-17T03:57:41;3.60;;;0.60;;
33987;SDS011;37428;53.580;-1.666;2022-10-17T04:00:43;7.13;;;0.88;;
33987;SDS011;37428;53.580;-1.666;2022-10-17T04:03:47;2.67;;;1.00;;
33987;SDS011;37428;53.580;-1.666;2022-10-17T04:06:52;4.90;;;0.70;;
33987;SDS011;37428;53.580;-1.666;2022-10-17T04:09:54;3.80;;;1.10;;
33987;SDS011;37428;53.580;-1.666;2022-10-17T04:12:56;3.17;;;1.13;;
33987;SDS011;37428;53.580;-1.666;2022-10-17T04:16:00;8.70;;;1.55;;
33987;SDS011;37428;53.580;-1.666;2022-10-17T04:19:05;6.63;;;1.02;;
33987;SDS011;37428;53.580;-1.666;2022-10-17T04:22:08;7.55;;;1.33;;
33987;SDS011;37428;53.580;-1.666;2022-10-17T04:25:10;4.30;;;0.93;;
33987;SDS011;37428;53.580;-1.666;2022-10-17T04:28:14;11.75;;;1.30;;
33987;SDS011;37428;53.580;-1.666;2022-10-17T04:31:16;8.75;;;1.05;;
33987;SDS011;37428;53.580;-1.666;2022-10-17T04:37:24;7.35;;;1.27;;
33987;SDS011;37428;53.580;-1.666;2022-10-17T04:40:26;9.20;;;1.35;;
33987;SDS011;37428;53.580;-1.666;2022-10-17T04:43:30;10.13;;;1.40;;
33987;SDS011;37428;53.580;-1.666;2022-10-17T04:46:33;11.48;;;1.55;;
33987;SDS011;37428;53.580;-1.666;2022-10-17T04:49:35;3.45;;;1.08;;
33987;SDS011;37428;53.580;-1.666;2022-10-17T04:52:39;6.65;;;1.73;;
33987;SDS011;37428;53.580;-1.666;2022-10-17T04:55:41;8.90;;;1.27;;
33987;SDS011;37428;53.580;-1.666;2022-10-17T04:58:43;8.48;;;2.10;;
33987;SDS011;37428;53.580;-1.666;2022-10-17T05:01:47;7.60;;;1.45;;
33987;SDS011;37428;53.580;-1.666;2022-10-17T05:04:49;10.18;;;1.42;;
33987;SDS011;37428;53.580;-1.666;2022-10-17T05:07:53;11.63;;;1.52;;
33987;SDS011;37428;53.580;-1.666;2022-10-17T05:10:55;11.68;;;1.20;;
33987;SDS011;37428;53.580;-1.666;2022-10-17T05:13:58;8.60;;;1.55;;
33987;SDS011;37428;53.580;-1.666;2022-10-17T05:17:01;8.70;;;1.60;;
33987;SDS011;37428;53.580;-1.666;2022-10-17T05:20:04;11.00;;;1.63;;
33987;SDS011;37428;53.580;-1.666;2022-10-17T05:23:08;15.05;;;2.35;;
33987;SDS011;37428;53.580;-1.666;2022-10-17T05:26:11;8.63;;;1.55;;
33987;SDS011;37428;53.580;-1.666;2022-10-17T05:29:13;10.63;;;2.13;;
33987;SDS011;37428;53.580;-1.666;2022-10-17T05:32:16;10.20;;;1.75;;
33987;SDS011;37428;53.580;-1.666;2022-10-17T05:35:18;14.40;;;2.95;;
33987;SDS011;37428;53.580;-1.666;2022-10-17T05:38:22;10.93;;;1.40;;
33987;SDS011;37428;53.580;-1.666;2022-10-17T05:41:24;12.30;;;2.42;;
33987;SDS011;37428;53.580;-1.666;2022-10-17T05:44:26;6.45;;;1.77;;
33987;SDS011;37428;53.580;-1.666;2022-10-17T05:47:28;10.48;;;2.00;;
33987;SDS011;37428;53.580;-1.666;2022-10-17T05:50:33;13.48;;;1.95;;
33987;SDS011;37428;53.580;-1.666;2022-10-17T05:53:37;17.02;;;2.00;;
33987;SDS011;37428;53.580;-1.666;2022-10-17T05:56:40;13.27;;;2.13;;
33987;SDS011;37428;53.580;-1.666;2022-10-17T05:59:43;11.65;;;1.58;;
33987;SDS011;37428;53.580;-1.666;2022-10-17T06:02:45;11.93;;;2.15;;
33987;SDS011;37428;53.580;-1.666;2022-10-17T06:05:47;12.10;;;1.70;;
33987;SDS011;37428;53.580;-1.666;2022-10-17T06:08:52;13.10;;;2.20;;
33987;SDS011;37428;53.580;-1.666;2022-10-17T06:11:54;12.20;;;2.80;;
33987;SDS011;37428;53.580;-1.666;2022-10-17T06:14:56;17.02;;;2.45;;
33987;SDS011;37428;53.580;-1.666;2022-10-17T06:17:58;14.30;;;1.83;;
33987;SDS011;37428;53.580;-1.666;2022-10-17T06:21:02;6.78;;;2.13;;
33987;SDS011;37428;53.580;-1.666;2022-10-17T06:27:08;12.48;;;1.83;;
33987;SDS011;37428;53.580;-1.666;2022-10-17T06:30:10;14.23;;;2.17;;
33987;SDS011;37428;53.580;-1.666;2022-10-17T06:33:12;16.48;;;2.22;;
33987;SDS011;37428;53.580;-1.666;2022-10-17T06:36:15;19.67;;;2.88;;
33987;SDS011;37428;53.580;-1.666;2022-10-17T06:39:20;10.63;;;2.17;;
33987;SDS011;37428;53.580;-1.666;2022-10-17T06:42:25;10.65;;;1.98;;
33987;SDS011;37428;53.580;-1.666;2022-10-17T06:45:28;18.35;;;2.75;;
33987;SDS011;37428;53.580;-1.666;2022-10-17T06:48:30;8.13;;;1.30;;
33987;SDS011;37428;53.580;-1.666;2022-10-17T06:54:37;12.05;;;2.05;;
33987;SDS011;37428;53.580;-1.666;2022-10-17T06:57:39;13.57;;;2.00;;
33987;SDS011;37428;53.580;-1.666;2022-10-17T07:00:41;20.15;;;2.78;;
33987;SDS011;37428;53.580;-1.666;2022-10-17T07:03:46;18.95;;;2.75;;
33987;SDS011;37428;53.580;-1.666;2022-10-17T07:06:48;16.80;;;3.20;;
33987;SDS011;37428;53.580;-1.666;2022-10-17T07:09:52;12.65;;;1.63;;
33987;SDS011;37428;53.580;-1.666;2022-10-17T07:12:54;21.70;;;3.45;;
33987;SDS011;37428;53.580;-1.666;2022-10-17T07:15:58;16.08;;;2.55;;
33987;SDS011;37428;53.580;-1.666;2022-10-17T07:19:00;15.02;;;1.95;;
33987;SDS011;37428;53.580;-1.666;2022-10-17T07:22:03;17.30;;;3.15;;
33987;SDS011;37428;53.580;-1.666;2022-10-17T07:25:07;12.40;;;2.80;;
33987;SDS011;37428;53.580;-1.666;2022-10-17T07:28:10;8.32;;;2.08;;
33987;SDS011;37428;53.580;-1.666;2022-10-17T07:31:13;15.18;;;2.50;;
33987;SDS011;37428;53.580;-1.666;2022-10-17T07:34:16;10.60;;;1.80;;
33987;SDS011;37428;53.580;-1.666;2022-10-17T07:37:18;15.50;;;2.00;;
33987;SDS011;37428;53.580;-1.666;2022-10-17T07:40:21;12.93;;;2.55;;
33987;SDS011;37428;53.580;-1.666;2022-10-17T07:43:24;15.45;;;2.53;;
33987;SDS011;37428;53.580;-1.666;2022-10-17T07:46:26;14.10;;;1.80;;
33987;SDS011;37428;53.580;-1.666;2022-10-17T07:49:28;17.02;;;2.08;;
33987;SDS011;37428;53.580;-1.666;2022-10-17T07:52:30;14.75;;;2.22;;
33987;SDS011;37428;53.580;-1.666;2022-10-17T07:55:40;14.64;;;3.14;;
33987;SDS011;37428;53.580;-1.666;2022-10-17T07:58:43;12.45;;;2.17;;
33987;SDS011;37428;53.580;-1.666;2022-10-17T08:01:49;10.38;;;1.85;;
33987;SDS011;37428;53.580;-1.666;2022-10-17T08:04:51;19.58;;;2.58;;
33987;SDS011;37428;53.580;-1.666;2022-10-17T08:07:53;18.48;;;2.63;;
33987;SDS011;37428;53.580;-1.666;2022-10-17T08:11:01;16.27;;;3.08;;
33987;SDS011;37428;53.580;-1.666;2022-10-17T08:14:05;7.55;;;1.58;;
33987;SDS011;37428;53.580;-1.666;2022-10-17T08:17:07;13.32;;;2.13;;
33987;SDS011;37428;53.580;-1.666;2022-10-17T08:20:10;16.48;;;2.38;;
33987;SDS011;37428;53.580;-1.666;2022-10-17T08:23:12;17.88;;;1.95;;
33987;SDS011;37428;53.580;-1.666;2022-10-17T08:26:16;15.13;;;2.65;;
33987;SDS011;37428;53.580;-1.666;2022-10-17T08:29:19;10.25;;;2.17;;
33987;SDS011;37428;53.580;-1.666;2022-10-17T08:32:22;12.23;;;1.98;;
33987;SDS011;37428;53.580;-1.666;2022-10-17T08:35:26;14.60;;;2.00;;
33987;SDS011;37428;53.580;-1.666;2022-10-17T08:38:28;11.13;;;1.88;;
33987;SDS011;37428;53.580;-1.666;2022-10-17T08:41:43;16.33;;;2.95;;
33987;SDS011;37428;53.580;-1.666;2022-10-17T08:44:56;10.80;;;1.92;;
33987;SDS011;37428;53.580;-1.666;2022-10-17T08:48:08;12.40;;;2.33;;
33987;SDS011;37428;53.580;-1.666;2022-10-17T08:51:14;8.40;;;1.92;;
33987;SDS011;37428;53.580;-1.666;2022-10-17T08:54:19;9.43;;;1.55;;
33987;SDS011;37428;53.580;-1.666;2022-10-17T08:57:29;14.30;;;2.50;;
33987;SDS011;37428;53.580;-1.666;2022-10-17T09:00:31;11.02;;;2.15;;
33987;SDS011;37428;53.580;-1.666;2022-10-17T09:06:43;8.23;;;1.48;;
33987;SDS011;37428;53.580;-1.666;2022-10-17T09:09:52;13.63;;;2.08;;
33987;SDS011;37428;53.580;-1.666;2022-10-17T09:13:07;7.30;;;1.80;;
33987;SDS011;37428;53.580;-1.666;2022-10-17T09:16:22;13.32;;;2.30;;
33987;SDS011;37428;53.580;-1.666;2022-10-17T09:19:37;9.30;;;2.15;;
33987;SDS011;37428;53.580;-1.666;2022-10-17T09:22:43;8.52;;;2.42;;
33987;SDS011;37428;53.580;-1.666;2022-10-17T09:25:51;14.07;;;2.40;;
33987;SDS011;37428;53.580;-1.666;2022-10-17T09:28:59;12.25;;;1.92;;
33987;SDS011;37428;53.580;-1.666;2022-10-17T09:32:02;10.48;;;2.53;;
33987;SDS011;37428;53.580;-1.666;2022-10-17T09:35:13;12.85;;;2.45;;
33987;SDS011;37428;53.580;-1.666;2022-10-17T09:41:21;12.13;;;2.42;;
33987;SDS011;37428;53.580;-1.666;2022-10-17T09:44:39;13.45;;;1.95;;
33987;SDS011;37428;53.580;-1.666;2022-10-17T09:47:48;11.48;;;2.00;;
33987;SDS011;37428;53.580;-1.666;2022-10-17T09:51:06;13.20;;;2.75;;
33987;SDS011;37428;53.580;-1.666;2022-10-17T09:54:10;9.90;;;1.77;;
33987;SDS011;37428;53.580;-1.666;2022-10-17T09:57:20;12.55;;;2.75;;
33987;SDS011;37428;53.580;-1.666;2022-10-17T10:00:27;16.67;;;1.98;;
33987;SDS011;37428;53.580;-1.666;2022-10-17T10:03:31;11.88;;;3.25;;
33987;SDS011;37428;53.580;-1.666;2022-10-17T10:06:33;10.45;;;2.95;;
33987;SDS011;37428;53.580;-1.666;2022-10-17T10:09:36;11.02;;;1.80;;
33987;SDS011;37428;53.580;-1.666;2022-10-17T10:12:38;9.55;;;2.15;;
33987;SDS011;37428;53.580;-1.666;2022-10-17T10:15:42;11.48;;;2.17;;
33987;SDS011;37428;53.580;-1.666;2022-10-17T10:18:46;8.82;;;2.00;;
33987;SDS011;37428;53.580;-1.666;2022-10-17T10:21:53;6.63;;;1.70;;
33987;SDS011;37428;53.580;-1.666;2022-10-17T10:25:06;12.63;;;2.28;;
33987;SDS011;37428;53.580;-1.666;2022-10-17T10:28:13;10.52;;;2.20;;
33987;SDS011;37428;53.580;-1.666;2022-10-17T10:31:23;7.55;;;1.65;;
33987;SDS011;37428;53.580;-1.666;2022-10-17T10:34:28;9.02;;;2.22;;
33987;SDS011;37428;53.580;-1.666;2022-10-17T10:37:32;12.70;;;2.08;;
33987;SDS011;37428;53.580;-1.666;2022-10-17T10:40:43;9.23;;;2.17;;
33987;SDS011;37428;53.580;-1.666;2022-10-17T10:43:48;7.18;;;1.98;;
33987;SDS011;37428;53.580;-1.666;2022-10-17T10:47:05;7.53;;;1.45;;
33987;SDS011;37428;53.580;-1.666;2022-10-17T10:50:23;9.68;;;1.80;;
33987;SDS011;37428;53.580;-1.666;2022-10-17T10:53:31;9.05;;;2.28;;
33987;SDS011;37428;53.580;-1.666;2022-10-17T10:56:39;12.80;;;2.25;;
33987;SDS011;37428;53.580;-1.666;2022-10-17T10:59:47;10.18;;;1.83;;
33987;SDS011;37428;53.580;-1.666;2022-10-17T11:03:00;10.68;;;1.70;;
33987;SDS011;37428;53.580;-1.666;2022-10-17T11:06:11;14.38;;;2.38;;
33987;SDS011;37428;53.580;-1.666;2022-10-17T11:09:23;11.35;;;2.45;;
33987;SDS011;37428;53.580;-1.666;2022-10-17T11:12:32;13.30;;;1.73;;
33987;SDS011;37428;53.580;-1.666;2022-10-17T11:15:41;12.45;;;2.03;;
33987;SDS011;37428;53.580;-1.666;2022-10-17T11:18:50;8.43;;;1.75;;
33987;SDS011;37428;53.580;-1.666;2022-10-17T11:22:01;9.32;;;1.67;;
33987;SDS011;37428;53.580;-1.666;2022-10-17T11:25:13;3.90;;;1.52;;
33987;SDS011;37428;53.580;-1.666;2022-10-17T11:28:22;11.52;;;2.95;;
33987;SDS011;37428;53.580;-1.666;2022-10-17T11:31:27;7.43;;;2.03;;
33987;SDS011;37428;53.580;-1.666;2022-10-17T11:34:34;9.50;;;1.83;;
33987;SDS011;37428;53.580;-1.666;2022-10-17T11:37:40;7.68;;;2.05;;
33987;SDS011;37428;53.580;-1.666;2022-10-17T11:40:48;8.30;;;1.67;;
33987;SDS011;37428;53.580;-1.666;2022-10-17T11:43:52;11.63;;;2.00;;
33987;SDS011;37428;53.580;-1.666;2022-10-17T11:46:58;12.02;;;1.80;;
33987;SDS011;37428;53.580;-1.666;2022-10-17T11:50:18;12.23;;;1.83;;
33987;SDS011;37428;53.580;-1.666;2022-10-17T11:53:25;12.45;;;2.03;;
33987;SDS011;37428;53.580;-1.666;2022-10-17T11:56:33;6.50;;;1.80;;
33987;SDS011;37428;53.580;-1.666;2022-10-17T11:59:46;6.68;;;1.92;;
33987;SDS011;37428;53.580;-1.666;2022-10-17T12:02:58;7.22;;;1.42;;
33987;SDS011;37428;53.580;-1.666;2022-10-17T12:06:10;9.50;;;1.27;;
33987;SDS011;37428;53.580;-1.666;2022-10-17T12:09:19;10.43;;;2.13;;
33987;SDS011;37428;53.580;-1.666;2022-10-17T12:12:28;9.60;;;1.40;;
33987;SDS011;37428;53.580;-1.666;2022-10-17T12:15:31;9.68;;;2.17;;
33987;SDS011;37428;53.580;-1.666;2022-10-17T12:18:33;9.13;;;2.20;;
33987;SDS011;37428;53.580;-1.666;2022-10-17T12:24:58;6.28;;;1.88;;
33987;SDS011;37428;53.580;-1.666;2022-10-17T12:28:07;8.98;;;1.98;;
33987;SDS011;37428;53.580;-1.666;2022-10-17T12:31:20;10.95;;;2.00;;
33987;SDS011;37428;53.580;-1.666;2022-10-17T12:34:24;6.50;;;2.35;;
33987;SDS011;37428;53.580;-1.666;2022-10-17T12:41:14;3.00;;;1.10;;
33987;SDS011;37428;53.580;-1.666;2022-10-17T12:47:37;7.90;;;1.35;;
33987;SDS011;37428;53.580;-1.666;2022-10-17T12:54:06;7.10;;;1.42;;
33987;SDS011;37428;53.580;-1.666;2022-10-17T12:57:16;10.13;;;1.70;;
33987;SDS011;37428;53.580;-1.666;2022-10-17T13:00:24;7.80;;;1.95;;
33987;SDS011;37428;53.580;-1.666;2022-10-17T13:03:32;6.68;;;2.05;;
33987;SDS011;37428;53.580;-1.666;2022-10-17T13:06:43;13.77;;;1.85;;
33987;SDS011;37428;53.580;-1.666;2022-10-17T13:09:48;9.15;;;1.95;;
33987;SDS011;37428;53.580;-1.666;2022-10-17T13:12:52;9.15;;;2.00;;
33987;SDS011;37428;53.580;-1.666;2022-10-17T13:16:01;14.07;;;2.20;;
33987;SDS011;37428;53.580;-1.666;2022-10-17T13:19:10;10.48;;;2.40;;
33987;SDS011;37428;53.580;-1.666;2022-10-17T13:22:15;12.25;;;1.80;;
33987;SDS011;37428;53.580;-1.666;2022-10-17T13:25:20;8.20;;;1.67;;
33987;SDS011;37428;53.580;-1.666;2022-10-17T13:28:23;8.77;;;1.80;;
33987;SDS011;37428;53.580;-1.666;2022-10-17T13:31:27;5.63;;;1.58;;
33987;SDS011;37428;53.580;-1.666;2022-10-17T13:34:31;10.02;;;1.98;;
33987;SDS011;37428;53.580;-1.666;2022-10-17T13:37:34;5.97;;;1.45;;
33987;SDS011;37428;53.580;-1.666;2022-10-17T13:40:38;7.35;;;1.90;;
33987;SDS011;37428;53.580;-1.666;2022-10-17T13:43:43;8.43;;;2.00;;
33987;SDS011;37428;53.580;-1.666;2022-10-17T13:46:45;6.20;;;1.45;;
33987;SDS011;37428;53.580;-1.666;2022-10-17T13:49:47;9.02;;;2.25;;
33987;SDS011;37428;53.580;-1.666;2022-10-17T13:53:04;4.93;;;1.90;;
33987;SDS011;37428;53.580;-1.666;2022-10-17T13:56:17;7.05;;;1.33;;
33987;SDS011;37428;53.580;-1.666;2022-10-17T13:59:21;13.57;;;2.40;;
33987;SDS011;37428;53.580;-1.666;2022-10-17T14:02:26;10.55;;;1.88;;
33987;SDS011;37428;53.580;-1.666;2022-10-17T14:05:29;16.15;;;2.38;;
33987;SDS011;37428;53.580;-1.666;2022-10-17T14:08:33;6.68;;;1.95;;
33987;SDS011;37428;53.580;-1.666;2022-10-17T14:11:38;7.35;;;1.67;;
33987;SDS011;37428;53.580;-1.666;2022-10-17T14:14:45;6.70;;;3.40;;
33987;SDS011;37428;53.580;-1.666;2022-10-17T14:17:53;9.65;;;2.05;;
33987;SDS011;37428;53.580;-1.666;2022-10-17T14:20:56;9.45;;;1.85;;
33987;SDS011;37428;53.580;-1.666;2022-10-17T14:24:12;5.40;;;2.08;;
33987;SDS011;37428;53.580;-1.666;2022-10-17T14:27:26;15.05;;;13.70;;
33987;SDS011;37428;53.580;-1.666;2022-10-17T14:30:31;8.13;;;1.80;;
33987;SDS011;37428;53.580;-1.666;2022-10-17T14:33:35;9.05;;;2.05;;
33987;SDS011;37428;53.580;-1.666;2022-10-17T14:36:38;9.73;;;1.80;;
33987;SDS011;37428;53.580;-1.666;2022-10-17T14:39:42;8.45;;;1.77;;
33987;SDS011;37428;53.580;-1.666;2022-10-17T14:42:50;5.63;;;1.70;;
33987;SDS011;37428;53.580;-1.666;2022-10-17T14:45:56;9.32;;;1.60;;
33987;SDS011;37428;53.580;-1.666;2022-10-17T14:49:02;11.15;;;2.40;;
33987;SDS011;37428;53.580;-1.666;2022-10-17T14:52:10;5.75;;;1.83;;
33987;SDS011;37428;53.580;-1.666;2022-10-17T14:55:24;4.85;;;1.83;;
33987;SDS011;37428;53.580;-1.666;2022-10-17T14:58:31;4.50;;;1.40;;
33987;SDS011;37428;53.580;-1.666;2022-10-17T15:01:34;10.52;;;2.35;;
33987;SDS011;37428;53.580;-1.666;2022-10-17T15:04:36;7.40;;;1.73;;
33987;SDS011;37428;53.580;-1.666;2022-10-17T15:07:38;7.68;;;1.63;;
33987;SDS011;37428;53.580;-1.666;2022-10-17T15:10:40;8.23;;;1.73;;
33987;SDS011;37428;53.580;-1.666;2022-10-17T15:13:44;6.78;;;1.33;;
33987;SDS011;37428;53.580;-1.666;2022-10-17T15:16:47;7.70;;;1.60;;
33987;SDS011;37428;53.580;-1.666;2022-10-17T15:19:49;7.72;;;1.70;;
33987;SDS011;37428;53.580;-1.666;2022-10-17T15:22:51;9.77;;;2.47;;
33987;SDS011;37428;53.580;-1.666;2022-10-17T15:25:53;6.43;;;2.50;;
33987;SDS011;37428;53.580;-1.666;2022-10-17T15:28:57;10.85;;;2.13;;
33987;SDS011;37428;53.580;-1.666;2022-10-17T15:31:59;7.55;;;1.50;;
33987;SDS011;37428;53.580;-1.666;2022-10-17T15:35:01;9.90;;;1.67;;
33987;SDS011;37428;53.580;-1.666;2022-10-17T15:38:05;9.77;;;1.77;;
33987;SDS011;37428;53.580;-1.666;2022-10-17T15:41:08;5.88;;;1.80;;
33987;SDS011;37428;53.580;-1.666;2022-10-17T15:44:13;8.70;;;1.33;;
33987;SDS011;37428;53.580;-1.666;2022-10-17T15:47:21;5.60;;;2.05;;
33987;SDS011;37428;53.580;-1.666;2022-10-17T15:50:25;8.85;;;1.77;;
33987;SDS011;37428;53.580;-1.666;2022-10-17T15:53:29;7.50;;;1.60;;
33987;SDS011;37428;53.580;-1.666;2022-10-17T15:56:32;10.27;;;2.20;;
33987;SDS011;37428;53.580;-1.666;2022-10-17T15:59:37;5.97;;;1.52;;
33987;SDS011;37428;53.580;-1.666;2022-10-17T16:02:39;9.85;;;1.85;;
33987;SDS011;37428;53.580;-1.666;2022-10-17T16:05:41;6.95;;;1.75;;
33987;SDS011;37428;53.580;-1.666;2022-10-17T16:08:44;8.20;;;1.58;;
33987;SDS011;37428;53.580;-1.666;2022-10-17T16:11:46;10.15;;;2.38;;
33987;SDS011;37428;53.580;-1.666;2022-10-17T16:14:50;8.88;;;1.63;;
33987;SDS011;37428;53.580;-1.666;2022-10-17T16:17:52;10.00;;;2.17;;
33987;SDS011;37428;53.580;-1.666;2022-10-17T16:20:56;9.90;;;2.20;;
33987;SDS011;37428;53.580;-1.666;2022-10-17T16:23:59;6.65;;;1.73;;
33987;SDS011;37428;53.580;-1.666;2022-10-17T16:30:06;8.75;;;2.10;;
33987;SDS011;37428;53.580;-1.666;2022-10-17T16:33:08;8.57;;;1.88;;
33987;SDS011;37428;53.580;-1.666;2022-10-17T16:36:11;8.05;;;1.90;;
33987;SDS011;37428;53.580;-1.666;2022-10-17T16:39:13;11.10;;;1.75;;
33987;SDS011;37428;53.580;-1.666;2022-10-17T16:42:15;8.70;;;2.00;;
33987;SDS011;37428;53.580;-1.666;2022-10-17T16:45:19;8.32;;;1.52;;
33987;SDS011;37428;53.580;-1.666;2022-10-17T16:48:22;8.65;;;1.75;;
33987;SDS011;37428;53.580;-1.666;2022-10-17T16:51:24;12.85;;;2.15;;
33987;SDS011;37428;53.580;-1.666;2022-10-17T16:54:28;12.23;;;2.25;;
33987;SDS011;37428;53.580;-1.666;2022-10-17T16:57:30;9.40;;;1.90;;
33987;SDS011;37428;53.580;-1.666;2022-10-17T17:00:34;10.55;;;1.77;;
33987;SDS011;37428;53.580;-1.666;2022-10-17T17:03:36;10.13;;;1.75;;
33987;SDS011;37428;53.580;-1.666;2022-10-17T17:06:38;13.52;;;3.83;;
33987;SDS011;37428;53.580;-1.666;2022-10-17T17:09:41;16.98;;;6.25;;
33987;SDS011;37428;53.580;-1.666;2022-10-17T17:12:43;17.35;;;6.20;;
33987;SDS011;37428;53.580;-1.666;2022-10-17T17:15:46;13.07;;;4.00;;
33987;SDS011;37428;53.580;-1.666;2022-10-17T17:18:53;10.80;;;2.88;;
33987;SDS011;37428;53.580;-1.666;2022-10-17T17:21:56;12.35;;;2.25;;
33987;SDS011;37428;53.580;-1.666;2022-10-17T17:24:58;10.57;;;2.15;;
33987;SDS011;37428;53.580;-1.666;2022-10-17T17:28:00;9.07;;;1.83;;
33987;SDS011;37428;53.580;-1.666;2022-10-17T17:31:06;7.57;;;1.90;;
33987;SDS011;37428;53.580;-1.666;2022-10-17T17:34:09;11.68;;;2.17;;
33987;SDS011;37428;53.580;-1.666;2022-10-17T17:37:11;8.40;;;1.75;;
33987;SDS011;37428;53.580;-1.666;2022-10-17T17:40:13;8.65;;;2.45;;
33987;SDS011;37428;53.580;-1.666;2022-10-17T17:43:15;11.48;;;2.95;;
33987;SDS011;37428;53.580;-1.666;2022-10-17T17:46:19;9.80;;;1.92;;
33987;SDS011;37428;53.580;-1.666;2022-10-17T17:49:22;15.32;;;2.05;;
33987;SDS011;37428;53.580;-1.666;2022-10-17T17:52:24;7.88;;;2.55;;
33987;SDS011;37428;53.580;-1.666;2022-10-17T17:55:26;23.50;;;6.93;;
33987;SDS011;37428;53.580;-1.666;2022-10-17T17:58:28;11.45;;;1.73;;
33987;SDS011;37428;53.580;-1.666;2022-10-17T18:01:32;7.88;;;1.92;;
33987;SDS011;37428;53.580;-1.666;2022-10-17T18:04:37;11.68;;;2.10;;
33987;SDS011;37428;53.580;-1.666;2022-10-17T18:07:40;9.93;;;2.10;;
33987;SDS011;37428;53.580;-1.666;2022-10-17T18:10:45;10.73;;;1.85;;
33987;SDS011;37428;53.580;-1.666;2022-10-17T18:13:51;9.52;;;2.38;;
33987;SDS011;37428;53.580;-1.666;2022-10-17T18:16:56;10.20;;;1.60;;
33987;SDS011;37428;53.580;-1.666;2022-10-17T18:19:58;7.43;;;2.08;;
33987;SDS011;37428;53.580;-1.666;2022-10-17T18:23:01;9.20;;;2.15;;
33987;SDS011;37428;53.580;-1.666;2022-10-17T18:26:04;9.38;;;2.00;;
33987;SDS011;37428;53.580;-1.666;2022-10-17T18:29:06;9.55;;;2.47;;
33987;SDS011;37428;53.580;-1.666;2022-10-17T18:32:11;7.60;;;1.92;;
33987;SDS011;37428;53.580;-1.666;2022-10-17T18:35:13;11.07;;;1.63;;
33987;SDS011;37428;53.580;-1.666;2022-10-17T18:38:16;9.82;;;2.63;;
33987;SDS011;37428;53.580;-1.666;2022-10-17T18:41:18;7.05;;;1.60;;
33987;SDS011;37428;53.580;-1.666;2022-10-17T18:44:21;11.40;;;2.05;;
33987;SDS011;37428;53.580;-1.666;2022-10-17T18:47:25;7.97;;;2.08;;
33987;SDS011;37428;53.580;-1.666;2022-10-17T18:50:28;8.13;;;1.88;;
33987;SDS011;37428;53.580;-1.666;2022-10-17T18:53:30;13.13;;;1.98;;
33987;SDS011;37428;53.580;-1.666;2022-10-17T18:56:33;5.65;;;1.75;;